Aérodrome :
LOGIN :

S'inscrire | Disclaimer

   EN    FR    IT 

 










Légende :    VFR   VFR Marginal   IFR   IFR Intensif   IFR Très Intensif
Visi : 
Plafond : 
>= 8 km
>= 3000ft
5 à 8 km
1000 à 3000 ft
1500m à 5 km
500 à 1000 ft
800 à 1500m
200 à 500 ft
< 800m
< 200 ft
Symboles :   Orages  Brouillard  Fortes neiges  Fortes précipitations  Vent > 20 kt
SIGMETs :   Divers  Orages  Givrage  Turbulence  Onde Orograph.  Cendres Volcan.






- Altitude de l'aérodrome : 26 ft


ETNT - Wittmundhaven AB

DERNIER METAR :
  • 270520Z 02003KT 9999 SCT045 SCT280 11/10 Q1034 BLU+BLU+ TEMPO WHT

METARs EXPIRÉS :
  • 270440Z 01002KT 9999 SCT045 SCT280 09/08 Q1034 BLU+BLU+ TEMPO WHT
  • 270420Z 35002KT 7000 SCT060 BKN280 09/08 Q1034 WHT BLU TEMPO WHT
  • 270320Z 33002KT 7000 BKN070 BKN280 08/07 Q1034 WHT

TAF TAF ETNT
Valide du 27 à 05h jusqu'au 27 à 14h UTC


270415Z 2705/2714 35004KT 9999 NSW BKN040 BKN280
TEMPO 2705/2708 VRB03KT 5000 BR FEW010 BKN025 BKN060 BY ETGL



MET'MAP, la Météo Aéronautique d'un coup d'oeil ! - Copyright ORBIFLY Décembre 2007 - Disclaimer

ORBIFLY MET'MAP TEAM :

Programmation & Développement : Alexandra Zaïnal
Sur une idée originale de : Baudouin d'Aumeries
Assistance à la programmation : Marc-Olivier Méhu
Soutien technique & logistique : Manuel Goepfert

Contact : metmap@orbifly.com




SOURCES & CREDITS :

   NOAA